sensor_id;sensor_type;location;lat;lon;timestamp;pressure;altitude;pressure_sealevel;temperature;humidity
51053;BME280;37093;37.716;-122.060;2022-09-11T00:01:15;99600.19;;;28.82;34.94
51053;BME280;37093;37.716;-122.060;2022-09-11T00:03:45;99606.19;;;28.93;34.59
51053;BME280;37093;37.716;-122.060;2022-09-11T00:06:15;99601.44;;;28.68;34.81
51053;BME280;37093;37.716;-122.060;2022-09-11T00:08:44;99598.66;;;28.62;34.12
51053;BME280;37093;37.716;-122.060;2022-09-11T00:11:16;99596.55;;;28.99;33.92
51053;BME280;37093;37.716;-122.060;2022-09-11T00:13:48;99599.16;;;28.85;34.00
51053;BME280;37093;37.716;-122.060;2022-09-11T00:16:20;99601.01;;;28.99;33.38
51053;BME280;37093;37.716;-122.060;2022-09-11T00:18:56;99599.95;;;29.17;33.35
51053;BME280;37093;37.716;-122.060;2022-09-11T00:21:25;99599.44;;;29.25;33.47
51053;BME280;37093;37.716;-122.060;2022-09-11T00:23:54;99596.89;;;28.92;33.06
51053;BME280;37093;37.716;-122.060;2022-09-11T00:26:22;99591.91;;;29.31;32.90
51053;BME280;37093;37.716;-122.060;2022-09-11T00:28:51;99595.90;;;29.71;32.66
51053;BME280;37093;37.716;-122.060;2022-09-11T00:31:23;99604.49;;;29.08;33.26
51053;BME280;37093;37.716;-122.060;2022-09-11T00:33:52;99602.49;;;29.33;32.83
51053;BME280;37093;37.716;-122.060;2022-09-11T00:36:22;99595.62;;;29.07;33.22
51053;BME280;37093;37.716;-122.060;2022-09-11T00:38:51;99592.17;;;28.93;33.26
51053;BME280;37093;37.716;-122.060;2022-09-11T00:41:22;99600.07;;;28.63;33.34
51053;BME280;37093;37.716;-122.060;2022-09-11T00:43:54;99604.47;;;29.23;32.81
51053;BME280;37093;37.716;-122.060;2022-09-11T00:46:25;99604.88;;;28.88;33.73
51053;BME280;37093;37.716;-122.060;2022-09-11T00:48:58;99609.87;;;28.71;33.87
51053;BME280;37093;37.716;-122.060;2022-09-11T00:51:30;99615.48;;;28.66;33.60
51053;BME280;37093;37.716;-122.060;2022-09-11T00:54:01;99613.82;;;28.84;33.79
51053;BME280;37093;37.716;-122.060;2022-09-11T00:56:32;99604.76;;;28.42;34.09
51053;BME280;37093;37.716;-122.060;2022-09-11T00:59:04;99602.63;;;28.56;33.66
51053;BME280;37093;37.716;-122.060;2022-09-11T01:01:33;99604.13;;;28.59;33.87
51053;BME280;37093;37.716;-122.060;2022-09-11T01:04:03;99607.93;;;28.84;33.75
51053;BME280;37093;37.716;-122.060;2022-09-11T01:06:32;99603.35;;;28.59;33.81
51053;BME280;37093;37.716;-122.060;2022-09-11T01:09:00;99601.56;;;28.50;34.06
51053;BME280;37093;37.716;-122.060;2022-09-11T01:11:41;99606.28;;;28.61;34.02
51053;BME280;37093;37.716;-122.060;2022-09-11T01:14:23;99616.46;;;28.59;33.99
51053;BME280;37093;37.716;-122.060;2022-09-11T01:17:05;99619.72;;;28.30;33.91
51053;BME280;37093;37.716;-122.060;2022-09-11T01:19:51;99616.97;;;28.34;33.77
51053;BME280;37093;37.716;-122.060;2022-09-11T01:22:42;99611.60;;;28.69;33.39
51053;BME280;37093;37.716;-122.060;2022-09-11T01:25:23;99605.08;;;28.81;33.76
51053;BME280;37093;37.716;-122.060;2022-09-11T01:27:53;99607.06;;;28.46;33.78
51053;BME280;37093;37.716;-122.060;2022-09-11T01:30:23;99609.57;;;28.24;33.91
51053;BME280;37093;37.716;-122.060;2022-09-11T01:33:09;99610.28;;;28.48;33.39
51053;BME280;37093;37.716;-122.060;2022-09-11T01:35:51;99614.36;;;28.34;33.56
51053;BME280;37093;37.716;-122.060;2022-09-11T01:38:26;99621.24;;;28.44;33.76
51053;BME280;37093;37.716;-122.060;2022-09-11T01:40:59;99621.33;;;28.42;33.85
51053;BME280;37093;37.716;-122.060;2022-09-11T01:43:35;99622.93;;;28.34;33.43
51053;BME280;37093;37.716;-122.060;2022-09-11T01:46:06;99620.19;;;28.47;33.03
51053;BME280;37093;37.716;-122.060;2022-09-11T01:48:39;99626.06;;;28.64;32.75
51053;BME280;37093;37.716;-122.060;2022-09-11T01:51:14;99633.62;;;28.70;32.90
51053;BME280;37093;37.716;-122.060;2022-09-11T01:53:46;99632.43;;;28.50;32.84
51053;BME280;37093;37.716;-122.060;2022-09-11T01:56:19;99635.98;;;28.82;33.09
51053;BME280;37093;37.716;-122.060;2022-09-11T01:58:52;99633.76;;;28.26;33.28
51053;BME280;37093;37.716;-122.060;2022-09-11T02:01:26;99635.46;;;28.72;33.19
51053;BME280;37093;37.716;-122.060;2022-09-11T02:04:00;99635.10;;;28.14;33.17
51053;BME280;37093;37.716;-122.060;2022-09-11T02:06:33;99640.55;;;28.31;32.98
51053;BME280;37093;37.716;-122.060;2022-09-11T02:09:06;99643.74;;;28.35;33.05
51053;BME280;37093;37.716;-122.060;2022-09-11T02:11:39;99654.43;;;28.63;33.05
51053;BME280;37093;37.716;-122.060;2022-09-11T02:14:14;99654.93;;;28.51;32.69
51053;BME280;37093;37.716;-122.060;2022-09-11T02:16:48;99660.90;;;28.66;32.34
51053;BME280;37093;37.716;-122.060;2022-09-11T02:19:19;99665.25;;;28.79;32.07
51053;BME280;37093;37.716;-122.060;2022-09-11T02:21:49;99672.57;;;28.63;32.15
51053;BME280;37093;37.716;-122.060;2022-09-11T02:24:19;99675.15;;;28.92;32.09
51053;BME280;37093;37.716;-122.060;2022-09-11T02:26:51;99673.69;;;28.72;31.96
51053;BME280;37093;37.716;-122.060;2022-09-11T02:29:21;99673.25;;;28.96;31.85
51053;BME280;37093;37.716;-122.060;2022-09-11T02:31:50;99671.44;;;28.97;31.86
51053;BME280;37093;37.716;-122.060;2022-09-11T02:34:22;99667.22;;;28.55;31.99
51053;BME280;37093;37.716;-122.060;2022-09-11T02:37:09;99660.82;;;28.94;31.94
51053;BME280;37093;37.716;-122.060;2022-09-11T02:40:02;99658.39;;;28.50;31.85
51053;BME280;37093;37.716;-122.060;2022-09-11T02:42:42;99665.18;;;28.96;32.05
51053;BME280;37093;37.716;-122.060;2022-09-11T02:45:21;99678.01;;;28.39;32.34
51053;BME280;37093;37.716;-122.060;2022-09-11T02:48:05;99693.73;;;28.42;32.23
51053;BME280;37093;37.716;-122.060;2022-09-11T02:50:41;99712.95;;;28.37;32.20
51053;BME280;37093;37.716;-122.060;2022-09-11T02:53:19;99729.89;;;27.47;33.48
51053;BME280;37093;37.716;-122.060;2022-09-11T02:55:57;99739.26;;;27.47;34.15
51053;BME280;37093;37.716;-122.060;2022-09-11T02:58:33;99748.66;;;27.25;34.62
51053;BME280;37093;37.716;-122.060;2022-09-11T03:01:03;99748.10;;;27.91;33.63
51053;BME280;37093;37.716;-122.060;2022-09-11T03:03:37;99752.08;;;27.93;33.26
51053;BME280;37093;37.716;-122.060;2022-09-11T03:06:07;99760.73;;;27.85;33.10
51053;BME280;37093;37.716;-122.060;2022-09-11T03:08:37;99766.12;;;28.23;32.88
51053;BME280;37093;37.716;-122.060;2022-09-11T03:11:05;99770.02;;;28.34;32.86
51053;BME280;37093;37.716;-122.060;2022-09-11T03:13:35;99771.91;;;28.40;32.75
51053;BME280;37093;37.716;-122.060;2022-09-11T03:16:04;99772.41;;;28.19;32.64
51053;BME280;37093;37.716;-122.060;2022-09-11T03:18:32;99772.09;;;28.22;32.78
51053;BME280;37093;37.716;-122.060;2022-09-11T03:21:01;99771.09;;;28.25;32.79
51053;BME280;37093;37.716;-122.060;2022-09-11T03:23:29;99771.04;;;28.22;32.87
51053;BME280;37093;37.716;-122.060;2022-09-11T03:25:57;99771.08;;;28.23;33.28
51053;BME280;37093;37.716;-122.060;2022-09-11T03:28:26;99772.81;;;28.20;33.09
51053;BME280;37093;37.716;-122.060;2022-09-11T03:30:54;99776.89;;;28.22;33.36
51053;BME280;37093;37.716;-122.060;2022-09-11T03:33:22;99779.68;;;28.50;33.55
51053;BME280;37093;37.716;-122.060;2022-09-11T03:35:51;99783.23;;;28.28;33.35
51053;BME280;37093;37.716;-122.060;2022-09-11T03:38:19;99789.32;;;28.53;33.35
51053;BME280;37093;37.716;-122.060;2022-09-11T03:40:47;99796.04;;;28.22;33.33
51053;BME280;37093;37.716;-122.060;2022-09-11T03:43:16;99794.77;;;28.21;32.98
51053;BME280;37093;37.716;-122.060;2022-09-11T03:45:44;99796.66;;;27.94;32.91
51053;BME280;37093;37.716;-122.060;2022-09-11T03:48:16;99797.18;;;28.16;32.80
51053;BME280;37093;37.716;-122.060;2022-09-11T03:50:44;99798.24;;;28.09;32.97
51053;BME280;37093;37.716;-122.060;2022-09-11T03:53:13;99806.24;;;28.33;32.88
51053;BME280;37093;37.716;-122.060;2022-09-11T03:55:43;99816.47;;;28.00;33.04
51053;BME280;37093;37.716;-122.060;2022-09-11T03:58:11;99825.48;;;27.96;33.05
51053;BME280;37093;37.716;-122.060;2022-09-11T04:00:41;99830.51;;;27.94;33.31
51053;BME280;37093;37.716;-122.060;2022-09-11T04:03:09;99837.17;;;27.95;33.36
51053;BME280;37093;37.716;-122.060;2022-09-11T04:05:38;99838.26;;;27.90;33.40
51053;BME280;37093;37.716;-122.060;2022-09-11T04:08:08;99836.66;;;28.18;33.34
51053;BME280;37093;37.716;-122.060;2022-09-11T04:10:38;99848.12;;;27.98;33.90
51053;BME280;37093;37.716;-122.060;2022-09-11T04:13:06;99860.48;;;27.77;33.85
51053;BME280;37093;37.716;-122.060;2022-09-11T04:15:35;99861.14;;;27.72;34.30
51053;BME280;37093;37.716;-122.060;2022-09-11T04:18:06;99863.18;;;27.72;34.78
51053;BME280;37093;37.716;-122.060;2022-09-11T04:20:36;99861.22;;;27.67;35.07
51053;BME280;37093;37.716;-122.060;2022-09-11T04:23:05;99860.17;;;27.69;34.92
51053;BME280;37093;37.716;-122.060;2022-09-11T04:25:33;99862.86;;;28.14;35.03
51053;BME280;37093;37.716;-122.060;2022-09-11T04:28:03;99867.03;;;27.95;35.27
51053;BME280;37093;37.716;-122.060;2022-09-11T04:30:30;99865.87;;;27.65;35.31
51053;BME280;37093;37.716;-122.060;2022-09-11T04:33:02;99859.72;;;28.18;35.28
51053;BME280;37093;37.716;-122.060;2022-09-11T04:35:30;99854.46;;;27.93;35.22
51053;BME280;37093;37.716;-122.060;2022-09-11T04:37:59;99851.67;;;28.19;35.21
51053;BME280;37093;37.716;-122.060;2022-09-11T04:40:27;99846.01;;;27.95;35.03
51053;BME280;37093;37.716;-122.060;2022-09-11T04:42:55;99838.25;;;27.73;34.94
51053;BME280;37093;37.716;-122.060;2022-09-11T04:45:24;99833.86;;;28.18;34.70
51053;BME280;37093;37.716;-122.060;2022-09-11T04:47:52;99828.06;;;27.97;34.52
51053;BME280;37093;37.716;-122.060;2022-09-11T04:50:21;99819.58;;;27.92;34.17
51053;BME280;37093;37.716;-122.060;2022-09-11T04:52:49;99811.65;;;27.87;33.55
51053;BME280;37093;37.716;-122.060;2022-09-11T04:55:17;99801.53;;;28.00;33.47
51053;BME280;37093;37.716;-122.060;2022-09-11T04:57:46;99791.88;;;27.70;33.38
51053;BME280;37093;37.716;-122.060;2022-09-11T05:00:15;99783.41;;;27.63;33.38
51053;BME280;37093;37.716;-122.060;2022-09-11T05:02:43;99769.40;;;27.85;33.17
51053;BME280;37093;37.716;-122.060;2022-09-11T05:05:12;99763.21;;;27.71;33.26
51053;BME280;37093;37.716;-122.060;2022-09-11T05:07:40;99767.11;;;27.63;33.40
51053;BME280;37093;37.716;-122.060;2022-09-11T05:10:09;99778.37;;;27.38;33.66
51053;BME280;37093;37.716;-122.060;2022-09-11T05:12:38;99792.34;;;27.39;33.52
51053;BME280;37093;37.716;-122.060;2022-09-11T05:15:07;99791.20;;;27.36;33.47
51053;BME280;37093;37.716;-122.060;2022-09-11T05:17:37;99783.53;;;27.35;33.09
51053;BME280;37093;37.716;-122.060;2022-09-11T05:20:06;99772.80;;;27.34;32.94
51053;BME280;37093;37.716;-122.060;2022-09-11T05:22:35;99748.72;;;27.35;33.02
51053;BME280;37093;37.716;-122.060;2022-09-11T05:25:04;99748.51;;;27.40;32.95
51053;BME280;37093;37.716;-122.060;2022-09-11T05:27:32;99760.51;;;27.45;33.12
51053;BME280;37093;37.716;-122.060;2022-09-11T05:30:01;99769.97;;;27.44;33.05
51053;BME280;37093;37.716;-122.060;2022-09-11T05:32:29;99764.92;;;27.48;32.84
51053;BME280;37093;37.716;-122.060;2022-09-11T05:34:57;99760.12;;;27.46;32.55
51053;BME280;37093;37.716;-122.060;2022-09-11T05:37:25;99761.48;;;27.48;32.54
51053;BME280;37093;37.716;-122.060;2022-09-11T05:39:54;99760.57;;;27.47;32.36
51053;BME280;37093;37.716;-122.060;2022-09-11T05:42:22;99764.25;;;27.47;32.56
51053;BME280;37093;37.716;-122.060;2022-09-11T05:44:50;99765.71;;;27.44;32.93
51053;BME280;37093;37.716;-122.060;2022-09-11T05:47:18;99755.52;;;27.44;32.51
51053;BME280;37093;37.716;-122.060;2022-09-11T05:49:46;99751.19;;;27.41;32.36
51053;BME280;37093;37.716;-122.060;2022-09-11T05:52:14;99747.16;;;27.40;32.46
51053;BME280;37093;37.716;-122.060;2022-09-11T05:54:42;99748.68;;;27.37;32.60
51053;BME280;37093;37.716;-122.060;2022-09-11T05:57:11;99754.61;;;27.14;32.61
51053;BME280;37093;37.716;-122.060;2022-09-11T05:59:39;99760.11;;;27.30;32.73
51053;BME280;37093;37.716;-122.060;2022-09-11T06:02:09;99752.73;;;27.30;32.68
51053;BME280;37093;37.716;-122.060;2022-09-11T06:04:37;99748.08;;;27.27;32.72
51053;BME280;37093;37.716;-122.060;2022-09-11T06:07:06;99745.78;;;27.27;32.67
51053;BME280;37093;37.716;-122.060;2022-09-11T06:09:34;99748.29;;;27.23;32.84
51053;BME280;37093;37.716;-122.060;2022-09-11T06:12:02;99753.56;;;27.23;32.69
51053;BME280;37093;37.716;-122.060;2022-09-11T06:14:31;99765.99;;;27.20;32.76
51053;BME280;37093;37.716;-122.060;2022-09-11T06:16:59;99784.70;;;26.54;33.75
51053;BME280;37093;37.716;-122.060;2022-09-11T06:19:29;99785.69;;;26.52;33.75
51053;BME280;37093;37.716;-122.060;2022-09-11T06:21:57;99764.47;;;26.75;33.10
51053;BME280;37093;37.716;-122.060;2022-09-11T06:24:26;99745.26;;;26.78;33.36
51053;BME280;37093;37.716;-122.060;2022-09-11T06:26:54;99738.22;;;26.76;33.31
51053;BME280;37093;37.716;-122.060;2022-09-11T06:29:22;99728.52;;;26.78;33.49
51053;BME280;37093;37.716;-122.060;2022-09-11T06:31:50;99725.66;;;26.77;33.35
51053;BME280;37093;37.716;-122.060;2022-09-11T06:34:19;99728.17;;;26.75;33.31
51053;BME280;37093;37.716;-122.060;2022-09-11T06:36:48;99741.43;;;26.81;33.28
51053;BME280;37093;37.716;-122.060;2022-09-11T06:39:16;99754.19;;;26.79;33.15
51053;BME280;37093;37.716;-122.060;2022-09-11T06:41:44;99758.12;;;26.77;33.21
51053;BME280;37093;37.716;-122.060;2022-09-11T06:44:12;99762.06;;;26.81;33.21
51053;BME280;37093;37.716;-122.060;2022-09-11T06:46:40;99775.06;;;26.81;33.08
51053;BME280;37093;37.716;-122.060;2022-09-11T06:49:09;99798.84;;;24.60;36.79
51053;BME280;37093;37.716;-122.060;2022-09-11T06:51:37;99815.78;;;22.83;40.85
51053;BME280;37093;37.716;-122.060;2022-09-11T06:54:06;99810.50;;;24.01;39.13
51053;BME280;37093;37.716;-122.060;2022-09-11T06:56:34;99797.52;;;25.04;36.73
51053;BME280;37093;37.716;-122.060;2022-09-11T06:59:03;99797.17;;;25.46;35.61
51053;BME280;37093;37.716;-122.060;2022-09-11T07:01:15;99805.38;;;24.60;35.81
51053;BME280;37093;37.716;-122.060;2022-09-11T07:03:45;99813.97;;;23.28;36.57
51053;BME280;37093;37.716;-122.060;2022-09-11T07:06:14;99820.53;;;24.92;35.54
51053;BME280;37093;37.716;-122.060;2022-09-11T07:08:43;99817.62;;;25.90;34.97
51053;BME280;37093;37.716;-122.060;2022-09-11T07:11:11;99821.10;;;25.72;34.90
51053;BME280;37093;37.716;-122.060;2022-09-11T07:13:40;99822.95;;;26.07;34.67
51053;BME280;37093;37.716;-122.060;2022-09-11T07:16:10;99821.61;;;26.40;34.26
51053;BME280;37093;37.716;-122.060;2022-09-11T07:18:40;99823.74;;;26.49;34.18
51053;BME280;37093;37.716;-122.060;2022-09-11T07:21:11;99822.99;;;26.57;34.09
51053;BME280;37093;37.716;-122.060;2022-09-11T07:23:40;99827.39;;;26.42;33.94
51053;BME280;37093;37.716;-122.060;2022-09-11T07:26:09;99833.71;;;26.16;33.97
51053;BME280;37093;37.716;-122.060;2022-09-11T07:28:39;99840.16;;;26.49;33.72
51053;BME280;37093;37.716;-122.060;2022-09-11T07:31:09;99842.01;;;26.27;33.72
51053;BME280;37093;37.716;-122.060;2022-09-11T07:33:38;99844.11;;;26.56;33.35
51053;BME280;37093;37.716;-122.060;2022-09-11T07:36:09;99842.37;;;26.34;33.52
51053;BME280;37093;37.716;-122.060;2022-09-11T07:38:38;99835.25;;;26.91;33.53
51053;BME280;37093;37.716;-122.060;2022-09-11T07:41:07;99830.97;;;26.90;33.27
51053;BME280;37093;37.716;-122.060;2022-09-11T07:43:37;99827.60;;;26.37;33.21
51053;BME280;37093;37.716;-122.060;2022-09-11T07:46:06;99825.77;;;26.36;33.18
51053;BME280;37093;37.716;-122.060;2022-09-11T07:48:35;99828.95;;;26.63;33.51
51053;BME280;37093;37.716;-122.060;2022-09-11T07:51:05;99833.13;;;26.84;33.64
51053;BME280;37093;37.716;-122.060;2022-09-11T07:53:35;99832.20;;;26.34;33.38
51053;BME280;37093;37.716;-122.060;2022-09-11T07:56:05;99828.23;;;26.83;33.22
51053;BME280;37093;37.716;-122.060;2022-09-11T07:58:35;99828.42;;;26.32;33.24
51053;BME280;37093;37.716;-122.060;2022-09-11T08:01:04;99832.69;;;26.76;33.40
51053;BME280;37093;37.716;-122.060;2022-09-11T08:03:33;99834.19;;;26.25;33.39
51053;BME280;37093;37.716;-122.060;2022-09-11T08:06:03;99832.41;;;26.51;33.09
51053;BME280;37093;37.716;-122.060;2022-09-11T08:08:32;99826.84;;;26.50;32.99
51053;BME280;37093;37.716;-122.060;2022-09-11T08:11:03;99820.97;;;26.50;33.15
51053;BME280;37093;37.716;-122.060;2022-09-11T08:13:33;99816.69;;;26.70;32.86
51053;BME280;37093;37.716;-122.060;2022-09-11T08:16:02;99816.87;;;26.47;33.06
51053;BME280;37093;37.716;-122.060;2022-09-11T08:18:31;99818.98;;;26.43;33.16
51053;BME280;37093;37.716;-122.060;2022-09-11T08:21:01;99815.84;;;26.41;32.98
51053;BME280;37093;37.716;-122.060;2022-09-11T08:23:30;99811.38;;;26.10;33.32
51053;BME280;37093;37.716;-122.060;2022-09-11T08:26:04;99810.65;;;26.56;33.36
51053;BME280;37093;37.716;-122.060;2022-09-11T08:28:33;99815.98;;;26.29;33.47
51053;BME280;37093;37.716;-122.060;2022-09-11T08:31:03;99815.37;;;26.44;33.64
51053;BME280;37093;37.716;-122.060;2022-09-11T08:33:32;99817.43;;;26.22;33.47
51053;BME280;37093;37.716;-122.060;2022-09-11T08:36:06;99808.11;;;26.39;33.42
51053;BME280;37093;37.716;-122.060;2022-09-11T08:38:35;99809.50;;;26.38;33.07
51053;BME280;37093;37.716;-122.060;2022-09-11T08:41:14;99807.03;;;26.44;33.14
51053;BME280;37093;37.716;-122.060;2022-09-11T08:43:49;99802.48;;;25.91;33.00
51053;BME280;37093;37.716;-122.060;2022-09-11T08:46:22;99798.08;;;26.18;32.98
51053;BME280;37093;37.716;-122.060;2022-09-11T08:48:58;99794.55;;;26.37;33.12
51053;BME280;37093;37.716;-122.060;2022-09-11T08:51:30;99794.00;;;26.35;33.16
51053;BME280;37093;37.716;-122.060;2022-09-11T08:53:59;99792.83;;;26.29;33.18
51053;BME280;37093;37.716;-122.060;2022-09-11T08:56:30;99788.13;;;26.06;33.32
51053;BME280;37093;37.716;-122.060;2022-09-11T08:59:17;99787.54;;;26.23;33.21
51053;BME280;37093;37.716;-122.060;2022-09-11T09:01:56;99784.93;;;26.26;33.11
51053;BME280;37093;37.716;-122.060;2022-09-11T09:04:49;99781.81;;;26.21;33.42
51053;BME280;37093;37.716;-122.060;2022-09-11T09:07:27;99783.74;;;26.24;33.13
51053;BME280;37093;37.716;-122.060;2022-09-11T09:10:04;99784.46;;;26.16;33.19
51053;BME280;37093;37.716;-122.060;2022-09-11T09:12:44;99787.71;;;26.14;33.20
51053;BME280;37093;37.716;-122.060;2022-09-11T09:15:23;99787.14;;;25.85;33.25
51053;BME280;37093;37.716;-122.060;2022-09-11T09:17:56;99793.14;;;26.06;32.87
51053;BME280;37093;37.716;-122.060;2022-09-11T09:20:30;99793.40;;;26.06;33.32
51053;BME280;37093;37.716;-122.060;2022-09-11T09:23:05;99792.97;;;26.07;33.06
51053;BME280;37093;37.716;-122.060;2022-09-11T09:25:37;99794.06;;;25.95;33.42
51053;BME280;37093;37.716;-122.060;2022-09-11T09:28:15;99798.41;;;26.05;33.15
51053;BME280;37093;37.716;-122.060;2022-09-11T09:30:51;99802.25;;;25.82;34.04
51053;BME280;37093;37.716;-122.060;2022-09-11T09:33:27;99807.76;;;24.66;35.69
51053;BME280;37093;37.716;-122.060;2022-09-11T09:36:05;99806.87;;;25.48;34.82
51053;BME280;37093;37.716;-122.060;2022-09-11T09:38:39;99810.62;;;25.53;34.08
51053;BME280;37093;37.716;-122.060;2022-09-11T09:41:23;99813.33;;;25.63;33.86
51053;BME280;37093;37.716;-122.060;2022-09-11T09:43:58;99812.42;;;25.46;33.99
51053;BME280;37093;37.716;-122.060;2022-09-11T09:46:36;99812.99;;;25.78;33.62
51053;BME280;37093;37.716;-122.060;2022-09-11T09:49:08;99813.21;;;25.62;33.18
51053;BME280;37093;37.716;-122.060;2022-09-11T09:51:37;99815.86;;;25.71;32.92
51053;BME280;37093;37.716;-122.060;2022-09-11T09:54:07;99820.53;;;25.74;33.02
51053;BME280;37093;37.716;-122.060;2022-09-11T09:56:39;99821.47;;;25.56;32.92
51053;BME280;37093;37.716;-122.060;2022-09-11T09:59:13;99823.66;;;25.65;32.60
51053;BME280;37093;37.716;-122.060;2022-09-11T10:01:45;99821.72;;;25.26;32.35
51053;BME280;37093;37.716;-122.060;2022-09-11T10:04:17;99821.84;;;25.54;32.21
51053;BME280;37093;37.716;-122.060;2022-09-11T10:06:47;99824.16;;;25.81;32.35
51053;BME280;37093;37.716;-122.060;2022-09-11T10:09:22;99817.75;;;25.79;32.36
51053;BME280;37093;37.716;-122.060;2022-09-11T10:11:53;99811.10;;;25.84;31.72
51053;BME280;37093;37.716;-122.060;2022-09-11T10:14:23;99810.59;;;25.59;31.89
51053;BME280;37093;37.716;-122.060;2022-09-11T10:16:51;99812.93;;;25.84;31.76
51053;BME280;37093;37.716;-122.060;2022-09-11T10:19:38;99813.09;;;25.80;31.70
51053;BME280;37093;37.716;-122.060;2022-09-11T10:22:25;99811.22;;;25.85;31.74
51053;BME280;37093;37.716;-122.060;2022-09-11T10:25:04;99814.16;;;25.83;31.86
51053;BME280;37093;37.716;-122.060;2022-09-11T10:27:39;99818.85;;;25.85;31.89
51053;BME280;37093;37.716;-122.060;2022-09-11T10:30:30;99825.27;;;25.81;31.69
51053;BME280;37093;37.716;-122.060;2022-09-11T10:33:01;99827.72;;;25.81;31.53
51053;BME280;37093;37.716;-122.060;2022-09-11T10:35:32;99828.48;;;25.78;31.55
51053;BME280;37093;37.716;-122.060;2022-09-11T10:38:14;99826.03;;;25.75;31.14
51053;BME280;37093;37.716;-122.060;2022-09-11T10:40:53;99820.55;;;25.67;30.90
51053;BME280;37093;37.716;-122.060;2022-09-11T10:43:26;99818.11;;;25.62;30.90
51053;BME280;37093;37.716;-122.060;2022-09-11T10:46:23;99820.07;;;25.83;30.99
51053;BME280;37093;37.716;-122.060;2022-09-11T10:48:55;99823.64;;;25.57;30.90
51053;BME280;37093;37.716;-122.060;2022-09-11T10:51:25;99822.85;;;25.82;30.78
51053;BME280;37093;37.716;-122.060;2022-09-11T10:54:07;99825.35;;;25.54;31.19
51053;BME280;37093;37.716;-122.060;2022-09-11T10:56:49;99827.77;;;25.71;31.49
51053;BME280;37093;37.716;-122.060;2022-09-11T10:59:30;99828.67;;;25.69;31.50
51053;BME280;37093;37.716;-122.060;2022-09-11T11:02:00;99826.15;;;25.72;31.35
51053;BME280;37093;37.716;-122.060;2022-09-11T11:04:31;99829.37;;;25.70;31.29
51053;BME280;37093;37.716;-122.060;2022-09-11T11:07:05;99836.58;;;25.72;31.68
51053;BME280;37093;37.716;-122.060;2022-09-11T11:09:51;99843.15;;;25.67;31.53
51053;BME280;37093;37.716;-122.060;2022-09-11T11:12:36;99837.79;;;25.73;31.48
51053;BME280;37093;37.716;-122.060;2022-09-11T11:15:51;99838.75;;;25.48;31.12
51053;BME280;37093;37.716;-122.060;2022-09-11T11:18:32;99846.10;;;25.52;31.39
51053;BME280;37093;37.716;-122.060;2022-09-11T11:21:15;99847.98;;;25.52;31.24
51053;BME280;37093;37.716;-122.060;2022-09-11T11:23:56;99846.69;;;25.49;31.32
51053;BME280;37093;37.716;-122.060;2022-09-11T11:26:36;99851.19;;;25.51;31.31
51053;BME280;37093;37.716;-122.060;2022-09-11T11:29:37;99857.42;;;25.48;31.24
51053;BME280;37093;37.716;-122.060;2022-09-11T11:32:23;99856.62;;;25.50;31.18
51053;BME280;37093;37.716;-122.060;2022-09-11T11:35:06;99857.88;;;25.71;31.32
51053;BME280;37093;37.716;-122.060;2022-09-11T11:37:41;99860.35;;;25.70;31.19
51053;BME280;37093;37.716;-122.060;2022-09-11T11:40:18;99860.50;;;25.19;30.98
51053;BME280;37093;37.716;-122.060;2022-09-11T11:42:50;99862.55;;;25.39;31.13
51053;BME280;37093;37.716;-122.060;2022-09-11T11:45:22;99860.88;;;25.40;31.07
51053;BME280;37093;37.716;-122.060;2022-09-11T11:47:53;99855.69;;;25.41;31.27
51053;BME280;37093;37.716;-122.060;2022-09-11T11:50:27;99857.48;;;25.63;30.88
51053;BME280;37093;37.716;-122.060;2022-09-11T11:53:03;99860.38;;;25.62;30.87
51053;BME280;37093;37.716;-122.060;2022-09-11T11:55:44;99858.97;;;25.62;30.90
51053;BME280;37093;37.716;-122.060;2022-09-11T11:58:20;99855.62;;;25.39;31.09
51053;BME280;37093;37.716;-122.060;2022-09-11T12:00:55;99854.27;;;25.40;31.13
51053;BME280;37093;37.716;-122.060;2022-09-11T12:03:30;99855.31;;;25.39;30.93
51053;BME280;37093;37.716;-122.060;2022-09-11T12:06:00;99855.31;;;25.40;31.19
51053;BME280;37093;37.716;-122.060;2022-09-11T12:08:29;99860.97;;;25.39;31.41
51053;BME280;37093;37.716;-122.060;2022-09-11T12:11:00;99860.81;;;25.39;31.46
51053;BME280;37093;37.716;-122.060;2022-09-11T12:13:34;99860.83;;;25.60;31.74
51053;BME280;37093;37.716;-122.060;2022-09-11T12:16:13;99861.69;;;25.61;31.69
51053;BME280;37093;37.716;-122.060;2022-09-11T12:19:04;99861.29;;;25.61;31.45
51053;BME280;37093;37.716;-122.060;2022-09-11T12:21:36;99864.98;;;25.41;31.52
51053;BME280;37093;37.716;-122.060;2022-09-11T12:24:15;99866.62;;;25.40;31.53
51053;BME280;37093;37.716;-122.060;2022-09-11T12:26:44;99868.64;;;25.40;31.55
51053;BME280;37093;37.716;-122.060;2022-09-11T12:30:27;99866.15;;;26.04;31.51
51053;BME280;37093;37.716;-122.060;2022-09-11T12:32:56;99866.12;;;25.59;31.28
51053;BME280;37093;37.716;-122.060;2022-09-11T12:35:28;99866.93;;;25.39;30.99
51053;BME280;37093;37.716;-122.060;2022-09-11T12:38:03;99864.76;;;25.36;31.24
51053;BME280;37093;37.716;-122.060;2022-09-11T12:40:45;99865.19;;;25.36;31.16
51053;BME280;37093;37.716;-122.060;2022-09-11T12:43:26;99865.21;;;25.58;31.36
51053;BME280;37093;37.716;-122.060;2022-09-11T12:45:55;99869.17;;;25.54;31.58
51053;BME280;37093;37.716;-122.060;2022-09-11T12:48:31;99870.86;;;25.30;31.24
51053;BME280;37093;37.716;-122.060;2022-09-11T12:51:02;99871.27;;;25.50;30.81
51053;BME280;37093;37.716;-122.060;2022-09-11T12:53:32;99869.36;;;25.48;30.57
51053;BME280;37093;37.716;-122.060;2022-09-11T12:56:05;99868.78;;;25.42;30.48
51053;BME280;37093;37.716;-122.060;2022-09-11T12:58:36;99867.83;;;25.44;30.72